sensor_id;sensor_type;location;lat;lon;timestamp;temperature;humidity
23813;DHT22;12087;45.190;5.688;2024-03-02T00:03:44;6.80;99.90
23813;DHT22;12087;45.190;5.688;2024-03-02T00:09:09;6.80;99.90
23813;DHT22;12087;45.190;5.688;2024-03-02T00:14:33;6.80;99.90
23813;DHT22;12087;45.190;5.688;2024-03-02T00:19:55;6.90;99.90
23813;DHT22;12087;45.190;5.688;2024-03-02T00:25:19;6.90;99.90
23813;DHT22;12087;45.190;5.688;2024-03-02T00:30:52;7.10;99.90
23813;DHT22;12087;45.190;5.688;2024-03-02T00:36:16;7.00;99.90
23813;DHT22;12087;45.190;5.688;2024-03-02T00:41:41;7.00;99.90
23813;DHT22;12087;45.190;5.688;2024-03-02T00:47:04;6.90;99.90
23813;DHT22;12087;45.190;5.688;2024-03-02T00:52:26;6.90;99.90
23813;DHT22;12087;45.190;5.688;2024-03-02T00:57:49;7.00;99.90
23813;DHT22;12087;45.190;5.688;2024-03-02T01:03:12;6.80;99.90
23813;DHT22;12087;45.190;5.688;2024-03-02T01:08:35;6.70;99.90
23813;DHT22;12087;45.190;5.688;2024-03-02T01:13:59;6.60;99.90
23813;DHT22;12087;45.190;5.688;2024-03-02T01:19:21;6.50;99.90
23813;DHT22;12087;45.190;5.688;2024-03-02T01:24:43;6.60;99.90
23813;DHT22;12087;45.190;5.688;2024-03-02T01:30:09;6.50;99.90
23813;DHT22;12087;45.190;5.688;2024-03-02T01:35:31;6.60;99.90
23813;DHT22;12087;45.190;5.688;2024-03-02T01:40:54;6.80;99.90
23813;DHT22;12087;45.190;5.688;2024-03-02T01:46:18;6.90;99.90
23813;DHT22;12087;45.190;5.688;2024-03-02T01:51:41;6.90;99.90
23813;DHT22;12087;45.190;5.688;2024-03-02T01:57:03;7.00;99.90
23813;DHT22;12087;45.190;5.688;2024-03-02T02:02:27;7.10;99.90
23813;DHT22;12087;45.190;5.688;2024-03-02T02:07:49;7.10;99.90
23813;DHT22;12087;45.190;5.688;2024-03-02T02:13:11;7.00;99.90
23813;DHT22;12087;45.190;5.688;2024-03-02T02:18:35;7.00;99.90
23813;DHT22;12087;45.190;5.688;2024-03-02T02:23:59;7.10;99.90
23813;DHT22;12087;45.190;5.688;2024-03-02T02:29:23;7.00;99.90
23813;DHT22;12087;45.190;5.688;2024-03-02T02:34:45;6.90;99.90
23813;DHT22;12087;45.190;5.688;2024-03-02T02:40:10;7.00;99.90
23813;DHT22;12087;45.190;5.688;2024-03-02T02:45:33;7.00;99.90
23813;DHT22;12087;45.190;5.688;2024-03-02T02:50:55;7.00;99.90
23813;DHT22;12087;45.190;5.688;2024-03-02T02:56:19;7.00;99.90
23813;DHT22;12087;45.190;5.688;2024-03-02T03:01:41;7.00;99.90
23813;DHT22;12087;45.190;5.688;2024-03-02T03:07:03;7.10;99.90
23813;DHT22;12087;45.190;5.688;2024-03-02T03:12:27;7.20;99.90
23813;DHT22;12087;45.190;5.688;2024-03-02T03:17:49;7.20;99.90
23813;DHT22;12087;45.190;5.688;2024-03-02T03:23:11;7.20;99.90
23813;DHT22;12087;45.190;5.688;2024-03-02T03:28:37;7.20;99.90
23813;DHT22;12087;45.190;5.688;2024-03-02T03:33:59;7.10;99.90
23813;DHT22;12087;45.190;5.688;2024-03-02T03:39:21;7.20;99.90
23813;DHT22;12087;45.190;5.688;2024-03-02T03:44:45;7.20;99.90
23813;DHT22;12087;45.190;5.688;2024-03-02T03:50:08;7.20;99.90
23813;DHT22;12087;45.190;5.688;2024-03-02T03:55:30;7.20;99.90
23813;DHT22;12087;45.190;5.688;2024-03-02T04:00:54;7.20;99.90
23813;DHT22;12087;45.190;5.688;2024-03-02T04:06:16;7.20;99.90
23813;DHT22;12087;45.190;5.688;2024-03-02T04:11:38;7.20;99.90
23813;DHT22;12087;45.190;5.688;2024-03-02T04:17:02;7.10;99.90
23813;DHT22;12087;45.190;5.688;2024-03-02T04:22:24;7.10;99.90
23813;DHT22;12087;45.190;5.688;2024-03-02T04:27:46;7.20;99.90
23813;DHT22;12087;45.190;5.688;2024-03-02T04:33:10;7.20;99.90
23813;DHT22;12087;45.190;5.688;2024-03-02T04:38:32;7.20;99.90
23813;DHT22;12087;45.190;5.688;2024-03-02T04:43:54;7.30;99.90
23813;DHT22;12087;45.190;5.688;2024-03-02T04:49:18;7.30;99.90
23813;DHT22;12087;45.190;5.688;2024-03-02T04:54:40;7.30;99.90
23813;DHT22;12087;45.190;5.688;2024-03-02T05:00:17;7.30;99.90
23813;DHT22;12087;45.190;5.688;2024-03-02T05:05:40;7.30;99.90
23813;DHT22;12087;45.190;5.688;2024-03-02T05:11:03;7.30;99.90
23813;DHT22;12087;45.190;5.688;2024-03-02T05:16:39;7.20;99.90
23813;DHT22;12087;45.190;5.688;2024-03-02T05:22:04;7.20;99.90
23813;DHT22;12087;45.190;5.688;2024-03-02T05:27:26;7.20;99.90
23813;DHT22;12087;45.190;5.688;2024-03-02T05:32:48;7.20;99.90
23813;DHT22;12087;45.190;5.688;2024-03-02T05:38:12;7.20;99.90
23813;DHT22;12087;45.190;5.688;2024-03-02T05:43:34;7.30;99.90
23813;DHT22;12087;45.190;5.688;2024-03-02T05:48:57;7.30;99.90
23813;DHT22;12087;45.190;5.688;2024-03-02T05:54:21;7.30;99.90
23813;DHT22;12087;45.190;5.688;2024-03-02T05:59:43;7.20;99.90
23813;DHT22;12087;45.190;5.688;2024-03-02T06:05:06;7.20;99.90
23813;DHT22;12087;45.190;5.688;2024-03-02T06:10:30;7.30;99.90
23813;DHT22;12087;45.190;5.688;2024-03-02T06:15:52;7.30;99.90
23813;DHT22;12087;45.190;5.688;2024-03-02T06:21:14;7.20;99.90
23813;DHT22;12087;45.190;5.688;2024-03-02T06:26:38;7.20;99.90
23813;DHT22;12087;45.190;5.688;2024-03-02T06:32:00;7.20;99.90
23813;DHT22;12087;45.190;5.688;2024-03-02T06:37:22;7.10;99.90
23813;DHT22;12087;45.190;5.688;2024-03-02T06:42:47;7.10;99.90
23813;DHT22;12087;45.190;5.688;2024-03-02T06:48:09;7.00;99.90
23813;DHT22;12087;45.190;5.688;2024-03-02T06:53:31;7.10;99.90
23813;DHT22;12087;45.190;5.688;2024-03-02T06:58:56;7.10;99.90
23813;DHT22;12087;45.190;5.688;2024-03-02T07:04:18;7.10;99.90
23813;DHT22;12087;45.190;5.688;2024-03-02T07:09:40;7.10;99.90
23813;DHT22;12087;45.190;5.688;2024-03-02T07:15:04;7.20;99.90
23813;DHT22;12087;45.190;5.688;2024-03-02T07:20:45;7.20;99.90
23813;DHT22;12087;45.190;5.688;2024-03-02T07:26:10;7.20;99.90
23813;DHT22;12087;45.190;5.688;2024-03-02T07:31:33;7.30;99.90
23813;DHT22;12087;45.190;5.688;2024-03-02T07:36:56;7.30;99.90
23813;DHT22;12087;45.190;5.688;2024-03-02T07:42:18;7.30;99.90
23813;DHT22;12087;45.190;5.688;2024-03-02T07:47:42;7.40;99.90
23813;DHT22;12087;45.190;5.688;2024-03-02T07:53:05;7.50;99.90
23813;DHT22;12087;45.190;5.688;2024-03-02T07:58:28;7.60;99.90
23813;DHT22;12087;45.190;5.688;2024-03-02T08:03:53;7.80;99.90
23813;DHT22;12087;45.190;5.688;2024-03-02T08:09:15;7.90;99.90
23813;DHT22;12087;45.190;5.688;2024-03-02T08:14:38;8.00;99.90
23813;DHT22;12087;45.190;5.688;2024-03-02T08:20:02;8.20;99.90
23813;DHT22;12087;45.190;5.688;2024-03-02T08:25:25;8.40;99.90
23813;DHT22;12087;45.190;5.688;2024-03-02T08:30:48;8.60;99.90
23813;DHT22;12087;45.190;5.688;2024-03-02T08:36:11;8.80;99.90
23813;DHT22;12087;45.190;5.688;2024-03-02T08:41:34;9.10;99.90
23813;DHT22;12087;45.190;5.688;2024-03-02T08:46:56;9.30;99.90
23813;DHT22;12087;45.190;5.688;2024-03-02T08:52:20;9.50;99.90
23813;DHT22;12087;45.190;5.688;2024-03-02T08:57:42;9.70;99.90
23813;DHT22;12087;45.190;5.688;2024-03-02T09:03:04;9.90;99.90
23813;DHT22;12087;45.190;5.688;2024-03-02T09:08:28;10.00;99.90
23813;DHT22;12087;45.190;5.688;2024-03-02T09:13:50;9.90;99.90
23813;DHT22;12087;45.190;5.688;2024-03-02T09:19:12;9.90;99.90
23813;DHT22;12087;45.190;5.688;2024-03-02T09:24:36;10.00;99.90
23813;DHT22;12087;45.190;5.688;2024-03-02T09:29:58;10.00;99.90
23813;DHT22;12087;45.190;5.688;2024-03-02T09:35:20;10.10;99.90
23813;DHT22;12087;45.190;5.688;2024-03-02T09:40:44;10.20;99.90
23813;DHT22;12087;45.190;5.688;2024-03-02T09:46:07;10.20;99.90
23813;DHT22;12087;45.190;5.688;2024-03-02T09:51:31;10.30;99.90
23813;DHT22;12087;45.190;5.688;2024-03-02T09:56:55;10.30;99.90
23813;DHT22;12087;45.190;5.688;2024-03-02T10:02:17;10.30;99.90
23813;DHT22;12087;45.190;5.688;2024-03-02T10:07:39;10.40;99.90
23813;DHT22;12087;45.190;5.688;2024-03-02T10:13:05;10.40;99.90
23813;DHT22;12087;45.190;5.688;2024-03-02T10:18:28;10.50;99.90
23813;DHT22;12087;45.190;5.688;2024-03-02T10:23:50;10.50;99.90
23813;DHT22;12087;45.190;5.688;2024-03-02T10:29:14;10.50;99.90
23813;DHT22;12087;45.190;5.688;2024-03-02T10:34:36;10.60;99.90
23813;DHT22;12087;45.190;5.688;2024-03-02T10:40:04;10.70;99.90
23813;DHT22;12087;45.190;5.688;2024-03-02T10:45:28;10.80;99.90
23813;DHT22;12087;45.190;5.688;2024-03-02T10:50:51;11.00;99.90
23813;DHT22;12087;45.190;5.688;2024-03-02T10:56:18;11.20;99.90
23813;DHT22;12087;45.190;5.688;2024-03-02T11:01:47;11.30;99.90
23813;DHT22;12087;45.190;5.688;2024-03-02T11:07:10;11.40;99.90
23813;DHT22;12087;45.190;5.688;2024-03-02T11:12:36;11.50;99.90
23813;DHT22;12087;45.190;5.688;2024-03-02T11:18:03;11.70;99.90
23813;DHT22;12087;45.190;5.688;2024-03-02T11:23:32;11.90;99.90
23813;DHT22;12087;45.190;5.688;2024-03-02T11:28:54;12.20;99.90
23813;DHT22;12087;45.190;5.688;2024-03-02T11:34:29;12.40;99.90
23813;DHT22;12087;45.190;5.688;2024-03-02T11:39:51;12.60;99.90
23813;DHT22;12087;45.190;5.688;2024-03-02T11:45:16;12.90;99.90
23813;DHT22;12087;45.190;5.688;2024-03-02T11:50:42;13.30;99.90
23813;DHT22;12087;45.190;5.688;2024-03-02T11:56:09;13.40;99.90
23813;DHT22;12087;45.190;5.688;2024-03-02T12:01:35;13.50;99.90
23813;DHT22;12087;45.190;5.688;2024-03-02T12:07:00;13.60;99.90
23813;DHT22;12087;45.190;5.688;2024-03-02T12:12:22;13.70;99.90
23813;DHT22;12087;45.190;5.688;2024-03-02T12:17:44;13.70;99.90
23813;DHT22;12087;45.190;5.688;2024-03-02T12:23:08;13.80;99.90
23813;DHT22;12087;45.190;5.688;2024-03-02T12:28:30;13.90;99.90
23813;DHT22;12087;45.190;5.688;2024-03-02T12:33:54;14.10;99.90
23813;DHT22;12087;45.190;5.688;2024-03-02T12:39:18;14.20;99.90
23813;DHT22;12087;45.190;5.688;2024-03-02T12:44:40;14.40;99.90
23813;DHT22;12087;45.190;5.688;2024-03-02T12:50:04;15.10;99.90
23813;DHT22;12087;45.190;5.688;2024-03-02T12:55:27;15.40;99.00
23813;DHT22;12087;45.190;5.688;2024-03-02T13:00:50;15.70;97.70
23813;DHT22;12087;45.190;5.688;2024-03-02T13:06:12;15.90;98.40
23813;DHT22;12087;45.190;5.688;2024-03-02T13:11:36;15.90;97.00
23813;DHT22;12087;45.190;5.688;2024-03-02T13:16:58;16.00;96.80
23813;DHT22;12087;45.190;5.688;2024-03-02T13:22:22;16.10;96.30
23813;DHT22;12087;45.190;5.688;2024-03-02T13:27:46;16.10;96.00
23813;DHT22;12087;45.190;5.688;2024-03-02T13:33:08;16.10;96.30
23813;DHT22;12087;45.190;5.688;2024-03-02T13:38:30;16.10;95.50
23813;DHT22;12087;45.190;5.688;2024-03-02T13:43:54;16.00;96.50
23813;DHT22;12087;45.190;5.688;2024-03-02T13:49:17;15.90;95.10
23813;DHT22;12087;45.190;5.688;2024-03-02T13:54:39;15.90;96.70
23813;DHT22;12087;45.190;5.688;2024-03-02T14:00:05;15.80;96.00
23813;DHT22;12087;45.190;5.688;2024-03-02T14:05:31;15.80;96.60
23813;DHT22;12087;45.190;5.688;2024-03-02T14:10:53;15.70;96.50
23813;DHT22;12087;45.190;5.688;2024-03-02T14:16:17;15.60;96.60
23813;DHT22;12087;45.190;5.688;2024-03-02T14:21:40;15.50;97.40
23813;DHT22;12087;45.190;5.688;2024-03-02T14:27:02;15.40;97.40
23813;DHT22;12087;45.190;5.688;2024-03-02T14:32:27;15.40;97.90
23813;DHT22;12087;45.190;5.688;2024-03-02T14:37:49;15.40;97.50
23813;DHT22;12087;45.190;5.688;2024-03-02T14:43:11;15.40;97.70
23813;DHT22;12087;45.190;5.688;2024-03-02T14:48:35;15.40;98.10
23813;DHT22;12087;45.190;5.688;2024-03-02T14:53:57;15.50;98.30
23813;DHT22;12087;45.190;5.688;2024-03-02T14:59:19;15.40;97.50
23813;DHT22;12087;45.190;5.688;2024-03-02T15:04:43;15.40;97.50
23813;DHT22;12087;45.190;5.688;2024-03-02T15:10:07;15.30;97.80
23813;DHT22;12087;45.190;5.688;2024-03-02T15:15:29;15.20;98.10
23813;DHT22;12087;45.190;5.688;2024-03-02T15:20:52;15.20;98.30
23813;DHT22;12087;45.190;5.688;2024-03-02T15:26:15;15.20;98.40
23813;DHT22;12087;45.190;5.688;2024-03-02T15:31:37;15.20;98.60
23813;DHT22;12087;45.190;5.688;2024-03-02T15:37:01;15.10;98.90
23813;DHT22;12087;45.190;5.688;2024-03-02T15:42:24;14.90;99.40
23813;DHT22;12087;45.190;5.688;2024-03-02T15:47:47;14.90;99.70
23813;DHT22;12087;45.190;5.688;2024-03-02T15:53:10;14.70;99.90
23813;DHT22;12087;45.190;5.688;2024-03-02T15:58:33;14.70;99.90
23813;DHT22;12087;45.190;5.688;2024-03-02T16:03:56;14.60;99.90
23813;DHT22;12087;45.190;5.688;2024-03-02T16:09:20;14.60;99.90
23813;DHT22;12087;45.190;5.688;2024-03-02T16:14:42;14.60;99.90
23813;DHT22;12087;45.190;5.688;2024-03-02T16:20:05;14.60;99.90
23813;DHT22;12087;45.190;5.688;2024-03-02T16:25:30;14.60;99.90
23813;DHT22;12087;45.190;5.688;2024-03-02T16:30:52;14.60;99.90
23813;DHT22;12087;45.190;5.688;2024-03-02T16:36:15;14.60;99.90
23813;DHT22;12087;45.190;5.688;2024-03-02T16:41:38;14.60;99.80
23813;DHT22;12087;45.190;5.688;2024-03-02T16:47:07;14.60;99.90
23813;DHT22;12087;45.190;5.688;2024-03-02T16:52:29;14.60;99.90
23813;DHT22;12087;45.190;5.688;2024-03-02T16:57:52;14.60;99.20
23813;DHT22;12087;45.190;5.688;2024-03-02T17:03:14;14.60;98.90
23813;DHT22;12087;45.190;5.688;2024-03-02T17:08:38;14.60;98.90
23813;DHT22;12087;45.190;5.688;2024-03-02T17:14:02;14.50;98.90
23813;DHT22;12087;45.190;5.688;2024-03-02T17:19:25;14.50;99.60
23813;DHT22;12087;45.190;5.688;2024-03-02T17:24:47;14.40;99.00
23813;DHT22;12087;45.190;5.688;2024-03-02T17:30:12;14.40;98.60
23813;DHT22;12087;45.190;5.688;2024-03-02T17:35:34;14.40;97.50
23813;DHT22;12087;45.190;5.688;2024-03-02T17:40:56;14.40;97.40
23813;DHT22;12087;45.190;5.688;2024-03-02T17:46:20;14.40;96.20
23813;DHT22;12087;45.190;5.688;2024-03-02T17:51:42;14.40;96.50
23813;DHT22;12087;45.190;5.688;2024-03-02T17:57:07;14.30;95.40
23813;DHT22;12087;45.190;5.688;2024-03-02T18:02:32;14.30;96.30
23813;DHT22;12087;45.190;5.688;2024-03-02T18:07:55;14.40;95.40
23813;DHT22;12087;45.190;5.688;2024-03-02T18:13:17;14.40;94.50
23813;DHT22;12087;45.190;5.688;2024-03-02T18:18:41;14.50;93.60
23813;DHT22;12087;45.190;5.688;2024-03-02T18:24:04;14.50;95.00
23813;DHT22;12087;45.190;5.688;2024-03-02T18:29:26;14.40;94.70
23813;DHT22;12087;45.190;5.688;2024-03-02T18:34:51;14.50;93.40
23813;DHT22;12087;45.190;5.688;2024-03-02T18:40:13;14.50;93.10
23813;DHT22;12087;45.190;5.688;2024-03-02T18:45:36;14.50;92.80
23813;DHT22;12087;45.190;5.688;2024-03-02T18:51:05;14.50;93.00
23813;DHT22;12087;45.190;5.688;2024-03-02T18:56:27;14.60;91.50
23813;DHT22;12087;45.190;5.688;2024-03-02T19:01:49;14.70;92.30
23813;DHT22;12087;45.190;5.688;2024-03-02T19:07:13;14.60;91.90
23813;DHT22;12087;45.190;5.688;2024-03-02T19:12:36;14.60;92.30
23813;DHT22;12087;45.190;5.688;2024-03-02T19:17:58;14.60;92.30
23813;DHT22;12087;45.190;5.688;2024-03-02T19:23:22;14.50;91.70
23813;DHT22;12087;45.190;5.688;2024-03-02T19:28:44;14.60;91.30
23813;DHT22;12087;45.190;5.688;2024-03-02T19:34:06;14.50;91.00
23813;DHT22;12087;45.190;5.688;2024-03-02T19:39:30;14.60;91.20
23813;DHT22;12087;45.190;5.688;2024-03-02T19:44:53;14.60;90.80
23813;DHT22;12087;45.190;5.688;2024-03-02T19:50:15;14.50;90.90
23813;DHT22;12087;45.190;5.688;2024-03-02T19:55:39;14.50;90.90
23813;DHT22;12087;45.190;5.688;2024-03-02T20:01:04;14.40;90.40
23813;DHT22;12087;45.190;5.688;2024-03-02T20:06:28;14.40;90.80
23813;DHT22;12087;45.190;5.688;2024-03-02T20:11:51;14.30;91.50
23813;DHT22;12087;45.190;5.688;2024-03-02T20:17:16;14.20;91.50
23813;DHT22;12087;45.190;5.688;2024-03-02T20:22:38;14.20;90.50
23813;DHT22;12087;45.190;5.688;2024-03-02T20:28:02;14.20;90.40
23813;DHT22;12087;45.190;5.688;2024-03-02T20:33:24;14.30;90.10
23813;DHT22;12087;45.190;5.688;2024-03-02T20:38:46;14.30;90.20
23813;DHT22;12087;45.190;5.688;2024-03-02T20:44:10;14.30;90.00
23813;DHT22;12087;45.190;5.688;2024-03-02T20:49:36;14.30;89.20
23813;DHT22;12087;45.190;5.688;2024-03-02T20:54:58;14.30;88.40
23813;DHT22;12087;45.190;5.688;2024-03-02T21:00:22;14.30;89.10
23813;DHT22;12087;45.190;5.688;2024-03-02T21:05:44;14.30;89.90
23813;DHT22;12087;45.190;5.688;2024-03-02T21:11:06;14.30;88.60
23813;DHT22;12087;45.190;5.688;2024-03-02T21:16:31;14.30;88.80
23813;DHT22;12087;45.190;5.688;2024-03-02T21:21:53;14.40;87.70
23813;DHT22;12087;45.190;5.688;2024-03-02T21:27:18;14.50;89.40
23813;DHT22;12087;45.190;5.688;2024-03-02T21:32:42;14.40;88.00
23813;DHT22;12087;45.190;5.688;2024-03-02T21:38:04;14.40;88.10
23813;DHT22;12087;45.190;5.688;2024-03-02T21:43:28;14.50;88.00
23813;DHT22;12087;45.190;5.688;2024-03-02T21:48:53;14.50;89.00
23813;DHT22;12087;45.190;5.688;2024-03-02T21:54:16;14.40;88.60
23813;DHT22;12087;45.190;5.688;2024-03-02T21:59:38;14.50;88.90
23813;DHT22;12087;45.190;5.688;2024-03-02T22:05:01;14.50;89.00
23813;DHT22;12087;45.190;5.688;2024-03-02T22:10:26;14.40;89.90
23813;DHT22;12087;45.190;5.688;2024-03-02T22:15:50;14.30;90.70
23813;DHT22;12087;45.190;5.688;2024-03-02T22:21:13;14.30;90.50
23813;DHT22;12087;45.190;5.688;2024-03-02T22:26:36;14.30;90.60
23813;DHT22;12087;45.190;5.688;2024-03-02T22:31:58;14.30;91.00
23813;DHT22;12087;45.190;5.688;2024-03-02T22:37:23;14.20;91.50
23813;DHT22;12087;45.190;5.688;2024-03-02T22:42:46;14.10;91.80
23813;DHT22;12087;45.190;5.688;2024-03-02T22:48:08;14.10;91.90
23813;DHT22;12087;45.190;5.688;2024-03-02T22:53:31;14.10;92.40
23813;DHT22;12087;45.190;5.688;2024-03-02T22:58:54;14.10;93.10
23813;DHT22;12087;45.190;5.688;2024-03-02T23:04:17;14.00;92.90
23813;DHT22;12087;45.190;5.688;2024-03-02T23:09:40;13.90;93.60
23813;DHT22;12087;45.190;5.688;2024-03-02T23:15:03;13.90;93.90
23813;DHT22;12087;45.190;5.688;2024-03-02T23:20:25;13.80;94.20
23813;DHT22;12087;45.190;5.688;2024-03-02T23:25:50;13.70;94.50
23813;DHT22;12087;45.190;5.688;2024-03-02T23:31:12;13.70;94.70
23813;DHT22;12087;45.190;5.688;2024-03-02T23:36:36;13.70;95.10
23813;DHT22;12087;45.190;5.688;2024-03-02T23:41:59;13.60;95.80
23813;DHT22;12087;45.190;5.688;2024-03-02T23:47:21;13.50;96.30
23813;DHT22;12087;45.190;5.688;2024-03-02T23:52:44;13.50;96.60
23813;DHT22;12087;45.190;5.688;2024-03-02T23:58:07;13.50;96.80
